Terminal Aerodrome Forecast
Issued by NWS Bismarck, ND

Home | Current Version | Previous Version | Text Only | Print | Product List | Glossary Off
Versions: 1 2 3 4 5 6 7 8 9 10 11 12 13 14 15 16 17 18 19 20 21

360
FTUS43 KBIS 240211 AAA
TAFISN
TAF AMD
KISN 240211Z 2402/2424 VRB03KT 6SM BR OVC008
     FM240400 07007KT 4SM BR VCSH OVC003
     FM240700 06007KT 2SM -SHRA BR VCTS OVC003CB
     FM240900 03006KT 2SM -SHRA BR OVC003
     FM241500 02007KT P6SM -SHRA OVC003
     FM241800 VRB06KT P6SM SHRA OVC008
     FM242100 34018G25KT P6SM SHRA OVC011=

USA.gov is the U.S. government's official web portal to all federal, state and local government web resources and services.